Time;durP1;ratioP1;P1;durP2;ratioP2;P2;SDS_P1;SDS_P2;PMS_P1;PMS_P2;Temp;Humidity;BMP_temperature;BMP_pressure;BME280_temperature;BME280_humidity;BME280_pressure;Samples;Min_cycle;Max_cycle;Signal;HPM_P1;HPM_P2
2023/11/27 00:00:01;;;;;;;4.40;4.18;;;;;;;-1.27;71.66;92937.69;509209;28;2157;-71
2023/11/27 00:00:16;;;;;;;3.80;3.40;;;;;;;-1.25;71.88;92932.53;508890;28;930;-71
2023/11/27 00:00:33;;;;;;;4.33;3.93;;;;;;;-1.26;71.59;92936.50;509368;28;931;-71
2023/11/27 00:00:48;;;;;;;3.70;3.50;;;;;;;-1.25;71.69;92937.97;510526;28;1881;-71
2023/11/27 00:01:04;;;;;;;4.03;3.73;;;;;;;-1.30;71.83;92935.97;509888;28;3099;-71
2023/11/27 00:01:19;;;;;;;3.80;3.50;;;;;;;-1.27;71.82;92940.41;510060;28;1161;-71
2023/11/27 00:01:35;;;;;;;3.17;2.97;;;;;;;-1.25;71.81;92930.56;508648;28;2075;-71
2023/11/27 00:01:50;;;;;;;3.70;3.40;;;;;;;-1.28;72.07;92941.66;509859;28;2027;-71
2023/11/27 00:02:06;;;;;;;4.00;3.70;;;;;;;-1.37;72.42;92922.91;509596;28;1011;-71
2023/11/27 00:02:22;;;;;;;4.00;3.78;;;;;;;-1.28;72.18;92941.66;508083;28;2262;-71
2023/11/27 00:02:38;;;;;;;4.25;4.00;;;;;;;-1.33;72.16;92926.09;509900;28;2066;-72
2023/11/27 00:02:54;;;;;;;4.18;3.97;;;;;;;-1.34;71.88;92927.34;509175;28;4001;-71
2023/11/27 00:03:09;;;;;;;3.97;3.78;;;;;;;-1.35;71.77;92928.56;508672;28;2213;-71
2023/11/27 00:03:24;;;;;;;3.80;3.60;;;;;;;-1.33;71.67;92934.97;509043;28;3114;-71
2023/11/27 00:03:40;;;;;;;4.22;4.03;;;;;;;-1.33;71.85;92942.34;508157;28;1204;-71
2023/11/27 00:03:55;;;;;;;4.43;4.20;;;;;;;-1.32;71.72;92933.03;509908;28;1921;-71
2023/11/27 00:04:11;;;;;;;3.93;3.73;;;;;;;-1.33;71.88;92928.81;510121;28;1818;-71
2023/11/27 00:04:26;;;;;;;4.13;3.92;;;;;;;-1.38;71.91;92929.53;509404;28;2217;-71
2023/11/27 00:04:42;;;;;;;4.13;3.93;;;;;;;-1.35;72.24;92928.56;508403;28;2091;-71
2023/11/27 00:04:57;;;;;;;4.38;4.18;;;;;;;-1.35;71.71;92925.84;509442;28;3794;-71
2023/11/27 00:05:13;;;;;;;4.43;4.13;;;;;;;-1.33;71.87;92936.94;509285;28;1184;-71
2023/11/27 00:05:28;;;;;;;3.60;3.40;;;;;;;-1.34;71.74;92927.34;510270;28;1079;-71
2023/11/27 00:05:43;;;;;;;3.50;3.30;;;;;;;-1.32;71.64;92933.03;509505;28;2111;-71
2023/11/27 00:05:59;;;;;;;3.60;3.30;;;;;;;-1.31;71.78;92937.94;507283;28;3156;-71
2023/11/27 00:06:14;;;;;;;3.60;3.40;;;;;;;-1.32;71.46;92939.16;509800;28;2078;-70
2023/11/27 00:06:30;;;;;;;3.50;3.30;;;;;;;-1.34;71.95;92936.19;511168;28;3700;-70
2023/11/27 00:06:45;;;;;;;3.03;2.90;;;;;;;-1.31;71.88;92929.06;510267;28;1862;-71
2023/11/27 00:07:00;;;;;;;3.20;3.10;;;;;;;-1.31;71.66;92935.22;510133;28;2090;-71
2023/11/27 00:07:16;;;;;;;3.40;3.30;;;;;;;-1.30;71.62;92930.56;510333;28;2044;-71
2023/11/27 00:07:31;;;;;;;3.07;2.97;;;;;;;-1.31;71.50;92929.06;508131;28;1952;-71
2023/11/27 00:07:47;;;;;;;2.95;2.75;;;;;;;-1.31;71.39;92937.94;509776;28;1928;-71
2023/11/27 00:08:02;;;;;;;3.30;3.10;;;;;;;-1.29;71.53;92937.44;508807;28;3094;-72
2023/11/27 00:08:18;;;;;;;3.70;3.50;;;;;;;-1.34;71.56;92938.19;510227;28;3266;-71
2023/11/27 00:08:33;;;;;;;3.80;3.60;;;;;;;-1.34;71.48;92938.91;508756;28;2046;-72
2023/11/27 00:08:49;;;;;;;3.85;3.65;;;;;;;-1.36;71.53;92933.22;508642;28;2019;-72
2023/11/27 00:09:04;;;;;;;3.93;3.73;;;;;;;-1.35;71.70;92933.97;508482;28;2059;-71
2023/11/27 00:09:21;;;;;;;4.30;4.10;;;;;;;-1.38;71.92;92946.50;509492;28;1819;-71
2023/11/27 00:09:36;;;;;;;4.35;4.15;;;;;;;-1.36;72.18;92935.19;506810;28;3634;-71
2023/11/27 00:09:52;;;;;;;4.25;3.95;;;;;;;-1.34;71.76;92946.31;510242;28;3919;-71
2023/11/27 00:10:08;;;;;;;4.37;4.10;;;;;;;-1.49;71.80;92921.38;507958;28;1871;-72
2023/11/27 00:10:23;;;;;;;3.80;3.60;;;;;;;-1.32;72.03;92941.88;509400;28;3316;-71
2023/11/27 00:10:38;;;;;;;4.07;3.87;;;;;;;-1.33;71.97;92929.56;509311;28;2046;-72
2023/11/27 00:10:54;;;;;;;5.13;4.83;;;;;;;-1.35;71.91;92942.09;509947;28;3257;-72
2023/11/27 00:11:09;;;;;;;4.67;4.47;;;;;;;-1.35;72.23;92940.13;508880;28;2114;-72
2023/11/27 00:11:25;;;;;;;4.18;3.97;;;;;;;-1.41;72.02;92935.91;508090;28;3387;-72
2023/11/27 00:11:40;;;;;;;3.93;3.73;;;;;;;-1.44;72.67;92943.03;509205;28;2163;-72
2023/11/27 00:11:56;;;;;;;4.03;3.83;;;;;;;-1.44;72.43;92937.63;508937;28;3739;-72
2023/11/27 00:12:11;;;;;;;4.40;4.20;;;;;;;-1.43;72.27;92947.25;510422;28;1748;-72
2023/11/27 00:12:27;;;;;;;4.47;4.28;;;;;;;-1.39;72.54;92936.94;508445;28;3019;-70
2023/11/27 00:12:42;;;;;;;3.73;3.53;;;;;;;-1.34;72.64;92940.88;510207;28;1160;-71
2023/11/27 00:12:59;;;;;;;3.78;3.30;;;;;;;-1.35;72.26;92942.84;510375;28;1181;-72
2023/11/27 00:13:14;;;;;;;4.05;3.47;;;;;;;-1.34;72.21;92943.59;510390;28;2020;-71
2023/11/27 00:13:30;;;;;;;5.90;3.88;;;;;;;-1.35;72.35;92936.69;509019;28;1818;-72
2023/11/27 00:13:46;;;;;;;5.85;4.50;;;;;;;-1.38;72.66;92946.50;508150;28;2496;-72
2023/11/27 00:14:01;;;;;;;5.03;4.83;;;;;;;-1.38;72.57;92940.34;508144;28;1949;-72
2023/11/27 00:14:17;;;;;;;5.57;5.38;;;;;;;-1.36;72.53;92940.59;509098;28;2164;-72
2023/11/27 00:14:32;;;;;;;5.47;5.27;;;;;;;-1.33;72.61;92942.34;509440;28;1786;-72
2023/11/27 00:14:47;;;;;;;4.65;4.45;;;;;;;-1.33;72.43;92931.53;509251;28;3061;-71
2023/11/27 00:15:03;;;;;;;4.50;4.20;;;;;;;-1.35;72.29;92944.81;508691;28;1947;-72
2023/11/27 00:15:19;;;;;;;4.40;4.15;;;;;;;-1.36;72.11;92944.06;508783;28;4294;-72
2023/11/27 00:15:34;;;;;;;4.50;4.20;;;;;;;-1.34;72.27;92935.47;507654;28;2023;-72
2023/11/27 00:15:50;;;;;;;4.32;4.07;;;;;;;-1.34;72.12;92936.19;509589;28;4178;-72
2023/11/27 00:16:06;;;;;;;3.80;3.60;;;;;;;-1.35;72.18;92939.38;508332;29;1252;-72
2023/11/27 00:16:22;;;;;;;4.07;3.80;;;;;;;-1.33;71.79;92939.66;508070;29;3592;-71
2023/11/27 00:16:38;;;;;;;4.28;4.07;;;;;;;-1.32;72.17;92927.59;506716;29;1977;-71
2023/11/27 00:16:53;;;;;;;3.90;3.70;;;;;;;-1.34;72.19;92927.34;506622;29;3196;-72
2023/11/27 00:17:08;;;;;;;6.80;6.40;;;;;;;-1.39;71.78;92928.81;508584;29;1952;-71
2023/11/27 00:17:24;;;;;;;6.23;5.87;;;;;;;-1.46;72.30;92929.25;508340;29;2148;-71
2023/11/27 00:17:39;;;;;;;4.10;3.90;;;;;;;-1.47;72.53;92940.56;506793;29;2012;-72
2023/11/27 00:17:55;;;;;;;4.53;4.30;;;;;;;-1.50;72.60;92936.13;508518;28;2233;-72
2023/11/27 00:18:10;;;;;;;4.40;4.20;;;;;;;-1.52;72.61;92939.31;508107;28;3182;-72
2023/11/27 00:18:26;;;;;;;3.90;3.63;;;;;;;-1.49;72.61;92943.03;509885;28;2522;-71
2023/11/27 00:18:41;;;;;;;3.93;3.63;;;;;;;-1.47;72.74;92943.28;508229;28;3266;-72
2023/11/27 00:18:57;;;;;;;4.30;3.92;;;;;;;-1.43;72.63;92949.19;508830;28;2351;-72
2023/11/27 00:19:12;;;;;;;4.27;3.97;;;;;;;-1.41;72.60;92949.47;508745;28;4120;-71
2023/11/27 00:19:27;;;;;;;4.20;4.00;;;;;;;-1.39;72.56;92944.28;509903;28;1085;-71
2023/11/27 00:19:43;;;;;;;4.00;3.80;;;;;;;-1.40;72.73;92919.19;508110;28;2470;-71
2023/11/27 00:19:58;;;;;;;6.38;6.00;;;;;;;-1.52;72.72;92928.47;510717;28;1974;-71
2023/11/27 00:20:14;;;;;;;6.67;6.27;;;;;;;-1.56;72.71;92939.53;509665;28;2206;-71
2023/11/27 00:20:30;;;;;;;4.40;4.10;;;;;;;-1.52;73.01;92935.84;509710;28;1833;-71
2023/11/27 00:20:45;;;;;;;4.25;3.97;;;;;;;-1.53;73.09;92945.94;507651;28;1919;-72
2023/11/27 00:21:01;;;;;;;4.40;4.10;;;;;;;-1.48;73.10;92944.50;508074;28;2236;-72
2023/11/27 00:21:16;;;;;;;4.15;3.90;;;;;;;-1.44;72.93;92942.28;507873;28;3310;-71
2023/11/27 00:21:32;;;;;;;3.23;3.03;;;;;;;-1.40;72.87;92940.84;509684;28;1966;-71
2023/11/27 00:21:47;;;;;;;3.05;2.85;;;;;;;-1.39;72.58;92944.28;507992;28;2609;-71
2023/11/27 00:22:03;;;;;;;3.80;3.60;;;;;;;-1.38;72.29;92946.50;508453;29;1953;-71
2023/11/27 00:22:18;;;;;;;4.43;4.22;;;;;;;-1.36;72.35;92949.47;506905;29;2533;-71
2023/11/27 00:22:34;;;;;;;3.97;3.77;;;;;;;-1.32;72.38;92950.00;505294;29;3984;-71
2023/11/27 00:22:49;;;;;;;3.65;3.35;;;;;;;-1.31;72.33;92954.19;507223;29;3617;-72
2023/11/27 00:23:05;;;;;;;3.87;3.57;;;;;;;-1.31;72.21;92945.31;508237;29;1079;-72
2023/11/27 00:23:20;;;;;;;4.20;4.00;;;;;;;-1.31;72.07;92956.91;508755;29;2318;-72
2023/11/27 00:23:36;;;;;;;4.00;3.80;;;;;;;-1.28;71.93;92952.47;507394;29;1941;-72
2023/11/27 00:23:51;;;;;;;3.78;3.58;;;;;;;-1.27;71.66;92948.53;508454;28;3304;-71
2023/11/27 00:24:07;;;;;;;3.87;3.67;;;;;;;-1.24;71.97;92948.31;508337;28;2378;-71
2023/11/27 00:24:22;;;;;;;3.70;3.50;;;;;;;-1.26;71.55;92939.19;507098;28;4265;-71
2023/11/27 00:24:37;;;;;;;4.30;4.10;;;;;;;-1.36;71.82;92954.88;508293;28;3923;-71
2023/11/27 00:24:53;;;;;;;4.00;3.80;;;;;;;-1.36;71.84;92946.78;509213;28;1937;-70
2023/11/27 00:25:08;;;;;;;3.50;3.30;;;;;;;-1.33;71.75;92953.19;507320;28;1627;-71
2023/11/27 00:25:24;;;;;;;3.70;3.40;;;;;;;-1.34;71.95;92944.31;511133;28;1624;-71
2023/11/27 00:25:39;;;;;;;3.15;2.95;;;;;;;-1.35;71.59;92944.81;509384;28;1572;-71
2023/11/27 00:25:55;;;;;;;3.03;2.83;;;;;;;-1.37;71.47;92941.84;509649;28;1668;-72
2023/11/27 00:26:10;;;;;;;3.38;3.15;;;;;;;-1.41;71.66;92950.19;509534;28;1884;-71
2023/11/27 00:26:26;;;;;;;3.50;3.30;;;;;;;-1.41;71.71;92946.75;509392;28;1916;-71
2023/11/27 00:26:41;;;;;;;3.60;3.30;;;;;;;-1.42;71.72;92948.72;507876;28;2191;-71
2023/11/27 00:26:56;;;;;;;3.40;3.10;;;;;;;-1.42;71.69;92946.00;508405;28;1086;-71
2023/11/27 00:27:12;;;;;;;3.83;3.63;;;;;;;-1.56;72.24;92944.22;509474;28;4188;-72
2023/11/27 00:27:27;;;;;;;3.97;3.77;;;;;;;-1.58;72.69;92955.50;510275;28;1965;-71
2023/11/27 00:27:43;;;;;;;4.20;4.00;;;;;;;-1.55;72.51;92959.22;508792;28;3461;-71
2023/11/27 00:27:58;;;;;;;4.70;4.50;;;;;;;-1.56;72.46;92946.91;509475;28;3324;-72
2023/11/27 00:28:14;;;;;;;4.45;4.25;;;;;;;-1.57;72.26;92951.59;508745;28;3950;-71
2023/11/27 00:28:29;;;;;;;3.83;3.63;;;;;;;-1.54;72.00;92950.59;507296;28;1766;-71
2023/11/27 00:28:44;;;;;;;3.53;3.33;;;;;;;-1.52;72.03;92952.84;508938;28;3109;-71
2023/11/27 00:29:00;;;;;;;3.75;3.55;;;;;;;-1.50;71.88;92953.09;509128;28;1841;-71
2023/11/27 00:29:15;;;;;;;3.90;3.70;;;;;;;-1.47;71.72;92954.09;508782;28;2362;-71
2023/11/27 00:29:31;;;;;;;3.55;3.28;;;;;;;-1.45;71.88;92954.38;509273;28;2065;-71
2023/11/27 00:29:46;;;;;;;3.47;3.17;;;;;;;-1.45;71.77;92957.06;508106;28;2390;-71
2023/11/27 00:30:02;;;;;;;3.38;3.20;;;;;;;-1.44;72.00;92958.53;509122;28;1922;-72
2023/11/27 00:30:17;;;;;;;3.90;3.70;;;;;;;-1.46;71.56;92959.03;509736;28;1963;-72
2023/11/27 00:30:33;;;;;;;3.88;3.67;;;;;;;-1.46;71.36;92961.00;509789;28;1928;-72
2023/11/27 00:30:48;;;;;;;3.47;3.27;;;;;;;-1.52;71.46;92958.97;508237;28;3323;-72
2023/11/27 00:31:06;;;;;;;3.63;3.40;;;;;;;-1.49;71.81;92956.56;509173;28;1917;-72
2023/11/27 00:31:22;;;;;;;3.55;3.35;;;;;;;-1.47;71.78;92954.81;509278;28;963;-71
2023/11/27 00:31:38;;;;;;;3.80;3.60;;;;;;;-1.45;71.67;92957.06;508083;28;2078;-72
2023/11/27 00:31:54;;;;;;;3.57;3.40;;;;;;;-1.43;71.56;92954.63;508705;28;2662;-72
2023/11/27 00:32:09;;;;;;;3.53;3.22;;;;;;;-1.43;71.70;92955.38;509881;28;1925;-71
2023/11/27 00:32:24;;;;;;;4.95;3.30;;;;;;;-1.39;71.77;92952.41;509608;28;1939;-71
2023/11/27 00:32:40;;;;;;;5.40;3.10;;;;;;;-1.40;71.72;92959.03;509409;28;1169;-72
2023/11/27 00:32:55;;;;;;;3.20;2.50;;;;;;;-1.39;71.55;92957.84;509791;28;1884;-70
2023/11/27 00:33:11;;;;;;;3.30;3.13;;;;;;;-1.37;71.40;92955.38;508339;28;3167;-71
2023/11/27 00:33:26;;;;;;;3.87;3.67;;;;;;;-1.38;71.26;92957.34;508220;28;1979;-72
2023/11/27 00:33:45;;;;;;;8.80;8.38;;;;;;;-1.45;71.54;92957.06;509608;28;3348;-72
2023/11/27 00:34:00;;;;;;;7.82;7.18;;;;;;;-1.45;71.49;92954.38;510151;28;1560;-71
2023/11/27 00:34:16;;;;;;;4.70;3.92;;;;;;;-1.45;71.29;92959.78;507215;28;3478;-72
2023/11/27 00:34:32;;;;;;;4.13;3.92;;;;;;;-1.49;71.77;92957.28;509511;28;1117;-72
2023/11/27 00:34:47;;;;;;;4.20;4.00;;;;;;;-1.50;71.87;92949.66;507728;28;3152;-72
2023/11/27 00:35:03;;;;;;;4.13;3.83;;;;;;;-1.47;71.93;92960.25;508739;28;3418;-72
2023/11/27 00:35:19;;;;;;;4.03;3.72;;;;;;;-1.45;71.82;92960.50;508618;28;2102;-72
2023/11/27 00:35:34;;;;;;;4.03;3.73;;;;;;;-1.42;71.63;92956.09;508334;28;1924;-72
2023/11/27 00:35:50;;;;;;;4.03;3.72;;;;;;;-1.39;71.79;92950.47;508762;28;1813;-72
2023/11/27 00:36:05;;;;;;;4.17;3.90;;;;;;;-1.37;71.59;92958.84;508285;29;2227;-71
2023/11/27 00:36:21;;;;;;;3.85;3.65;;;;;;;-1.39;71.78;92966.72;507513;29;1934;-72
2023/11/27 00:36:36;;;;;;;3.50;3.30;;;;;;;-1.35;71.69;92969.19;507914;29;2029;-71
2023/11/27 00:36:52;;;;;;;3.35;3.17;;;;;;;-1.33;71.48;92958.59;507665;29;1019;-71
2023/11/27 00:37:07;;;;;;;3.63;3.33;;;;;;;-1.33;71.40;92959.34;507106;29;1831;-71
2023/11/27 00:37:23;;;;;;;3.60;3.30;;;;;;;-1.33;71.42;92964.00;508005;29;1929;-71
2023/11/27 00:37:38;;;;;;;3.30;3.10;;;;;;;-1.35;71.46;92964.50;506717;29;986;-71
2023/11/27 00:37:53;;;;;;;3.40;3.20;;;;;;;-1.33;71.56;92966.72;508449;28;1866;-71
2023/11/27 00:38:09;;;;;;;3.77;3.47;;;;;;;-1.34;71.50;92967.97;509042;28;4188;-72
2023/11/27 00:38:24;;;;;;;3.40;3.10;;;;;;;-1.32;71.58;92960.09;506641;28;2629;-72
2023/11/27 00:38:40;;;;;;;3.37;3.17;;;;;;;-1.33;71.39;92964.00;507144;28;3614;-72
2023/11/27 00:38:56;;;;;;;3.90;3.70;;;;;;;-1.33;71.44;92964.00;510604;28;1879;-71
2023/11/27 00:39:11;;;;;;;4.05;3.85;;;;;;;-1.30;71.70;92971.19;509053;28;1804;-71
2023/11/27 00:39:27;;;;;;;4.00;3.60;;;;;;;-1.26;71.76;92969.00;508372;28;1941;-72
2023/11/27 00:39:42;;;;;;;3.25;2.92;;;;;;;-1.25;71.58;92967.75;508820;28;3278;-72
2023/11/27 00:39:58;;;;;;;3.00;2.90;;;;;;;-1.26;71.46;92972.44;510100;28;1996;-72
2023/11/27 00:40:13;;;;;;;3.30;3.10;;;;;;;-1.25;71.49;92963.06;509414;28;3964;-71
2023/11/27 00:40:29;;;;;;;3.27;2.97;;;;;;;-1.22;71.37;92967.53;508096;28;2373;-72
2023/11/27 00:40:46;;;;;;;3.20;3.00;;;;;;;-1.23;70.69;92968.00;506762;28;3215;-72
2023/11/27 00:41:01;;;;;;;3.63;3.42;;;;;;;-1.23;71.17;92973.41;509785;28;2277;-72
2023/11/27 00:41:17;;;;;;;3.83;3.63;;;;;;;-1.32;71.29;92963.53;509576;28;1889;-72
2023/11/27 00:41:32;;;;;;;3.45;3.25;;;;;;;-1.26;71.14;92967.03;508673;28;1868;-72
2023/11/27 00:41:48;;;;;;;7.10;6.80;;;;;;;-1.39;71.37;92955.13;509377;28;4179;-72
2023/11/27 00:42:04;;;;;;;7.40;7.10;;;;;;;-1.43;71.68;92976.28;509522;28;1959;-71
2023/11/27 00:42:20;;;;;;;3.85;3.65;;;;;;;-1.42;71.60;92967.66;508645;28;2072;-70
2023/11/27 00:42:36;;;;;;;3.88;3.60;;;;;;;-1.45;71.88;92962.47;508846;28;1868;-72
2023/11/27 00:42:51;;;;;;;3.15;2.97;;;;;;;-1.41;71.95;92965.69;508944;28;2386;-71
2023/11/27 00:43:07;;;;;;;2.70;2.60;;;;;;;-1.40;71.89;92967.91;507246;28;2321;-72
2023/11/27 00:43:22;;;;;;;3.20;3.05;;;;;;;-1.36;71.60;92968.44;508865;28;1920;-71
2023/11/27 00:43:38;;;;;;;3.30;3.10;;;;;;;-1.39;71.33;92963.25;508044;28;980;-71
2023/11/27 00:43:53;;;;;;;3.13;2.92;;;;;;;-1.37;71.17;92966.97;508536;28;3709;-71
2023/11/27 00:44:09;;;;;;;3.00;2.70;;;;;;;-1.41;71.18;92957.56;510710;28;2277;-71
2023/11/27 00:44:24;;;;;;;2.90;2.70;;;;;;;-1.46;71.41;92961.00;508954;28;1960;-71
2023/11/27 00:44:40;;;;;;;3.30;3.10;;;;;;;-1.46;71.58;92967.16;509151;28;2658;-71
2023/11/27 00:44:55;;;;;;;3.33;3.17;;;;;;;-1.45;71.66;92976.75;507456;28;3892;-71
2023/11/27 00:45:11;;;;;;;3.63;3.43;;;;;;;-1.41;71.63;92976.53;506992;28;3276;-71
2023/11/27 00:45:27;;;;;;;3.88;3.67;;;;;;;-1.48;71.32;92964.19;508314;28;2431;-71
2023/11/27 00:45:42;;;;;;;3.15;2.95;;;;;;;-1.46;71.25;92966.41;509341;28;2514;-72
2023/11/27 00:45:59;;;;;;;3.00;2.80;;;;;;;-1.45;71.31;92962.47;509436;28;2292;-71
2023/11/27 00:46:14;;;;;;;3.75;3.55;;;;;;;-1.45;71.37;92971.31;508499;28;3614;-72
2023/11/27 00:46:30;;;;;;;4.10;3.80;;;;;;;-1.56;71.21;92952.34;507965;28;1093;-72
2023/11/27 00:46:47;;;;;;;3.65;3.45;;;;;;;-1.49;71.78;92972.78;507327;28;2129;-72
2023/11/27 00:47:03;;;;;;;3.70;3.50;;;;;;;-1.46;71.84;92966.41;507746;28;2556;-71
2023/11/27 00:47:18;;;;;;;4.20;4.00;;;;;;;-1.45;71.70;92974.03;507559;28;2250;-72
2023/11/27 00:47:34;;;;;;;4.10;3.90;;;;;;;-1.45;71.90;92976.03;510014;28;1964;-71
2023/11/27 00:47:50;;;;;;;4.03;3.83;;;;;;;-1.45;72.06;92974.03;509731;28;2094;-71
2023/11/27 00:48:05;;;;;;;3.77;3.57;;;;;;;-1.48;71.92;92966.16;509994;28;1975;-71
2023/11/27 00:48:22;;;;;;;3.55;3.35;;;;;;;-1.46;72.10;92969.09;509585;28;1917;-71
2023/11/27 00:48:37;;;;;;;3.90;3.70;;;;;;;-1.43;72.06;92973.56;509439;28;1846;-71
2023/11/27 00:48:53;;;;;;;4.50;4.30;;;;;;;-1.43;71.90;92968.16;509814;28;2203;-71
2023/11/27 00:49:08;;;;;;;4.40;4.10;;;;;;;-1.45;71.67;92973.31;508010;28;1963;-71
2023/11/27 00:49:24;;;;;;;3.70;3.50;;;;;;;-1.43;71.48;92974.31;508208;28;3501;-71
2023/11/27 00:49:39;;;;;;;3.50;3.30;;;;;;;-1.39;71.56;92979.50;507992;28;3367;-71
2023/11/27 00:49:55;;;;;;;3.55;3.35;;;;;;;-1.39;71.47;92974.09;508772;28;3939;-71
2023/11/27 00:50:10;;;;;;;3.80;3.60;;;;;;;-1.40;71.31;92972.59;508539;28;967;-71
2023/11/27 00:50:27;;;;;;;3.57;3.37;;;;;;;-1.39;71.99;92977.53;509727;28;2513;-71
2023/11/27 00:50:42;;;;;;;3.25;3.05;;;;;;;-1.37;71.66;92975.09;508665;28;1078;-71
2023/11/27 00:50:57;;;;;;;3.45;3.25;;;;;;;-1.36;71.70;92973.09;508575;28;3115;-71
2023/11/27 00:51:13;;;;;;;3.80;3.60;;;;;;;-1.36;71.47;92973.84;509064;28;963;-71
2023/11/27 00:51:29;;;;;;;4.80;4.50;;;;;;;-1.40;71.54;92967.16;508676;28;3272;-71
2023/11/27 00:51:46;;;;;;;4.73;4.47;;;;;;;-1.42;71.66;92973.06;508618;28;3083;-71
2023/11/27 00:52:01;;;;;;;4.13;3.90;;;;;;;-1.41;71.90;92971.13;508981;28;2198;-71
2023/11/27 00:52:17;;;;;;;3.55;3.35;;;;;;;-1.41;71.77;92973.81;509798;28;1045;-71
2023/11/27 00:52:32;;;;;;;3.60;3.40;;;;;;;-1.39;71.92;92976.78;509143;28;2274;-71
2023/11/27 00:52:48;;;;;;;3.88;3.67;;;;;;;-1.38;71.77;92973.59;509788;28;1930;-71
2023/11/27 00:53:03;;;;;;;4.93;4.73;;;;;;;-1.41;71.94;92966.44;508775;28;3141;-72
2023/11/27 00:53:19;;;;;;;5.28;4.97;;;;;;;-1.44;72.21;92966.66;510029;28;1908;-71
2023/11/27 00:53:34;;;;;;;3.47;3.27;;;;;;;-1.40;71.86;92983.41;508129;28;1924;-71
2023/11/27 00:53:50;;;;;;;3.40;3.20;;;;;;;-1.41;72.02;92979.25;508844;28;2075;-71
2023/11/27 00:54:05;;;;;;;3.33;3.13;;;;;;;-1.39;71.85;92980.25;506022;28;3175;-71
2023/11/27 00:54:20;;;;;;;3.42;3.22;;;;;;;-1.39;71.88;92979.50;509809;28;3300;-72
2023/11/27 00:54:36;;;;;;;4.03;3.83;;;;;;;-1.55;72.05;92975.47;507107;28;3236;-72
2023/11/27 00:54:51;;;;;;;4.38;4.15;;;;;;;-1.52;72.63;92984.56;508920;28;1961;-71
2023/11/27 00:55:07;;;;;;;4.13;3.87;;;;;;;-1.51;72.31;92978.69;507961;28;3694;-71
2023/11/27 00:55:22;;;;;;;3.70;3.40;;;;;;;-1.50;72.42;92982.13;510581;28;1822;-71
2023/11/27 00:55:38;;;;;;;4.67;4.27;;;;;;;-1.49;72.73;92983.63;508693;28;2012;-71
2023/11/27 00:55:53;;;;;;;4.73;4.43;;;;;;;-1.47;72.55;92978.47;509888;28;3730;-72
2023/11/27 00:56:09;;;;;;;4.32;4.13;;;;;;;-1.50;72.63;92977.47;509922;28;1040;-73
2023/11/27 00:56:27;;;;;;;4.70;4.40;;;;;;;-1.51;72.59;92970.56;509486;28;3347;-71
2023/11/27 00:56:42;;;;;;;5.05;4.75;;;;;;;-1.52;72.53;92975.22;507676;28;3538;-71
2023/11/27 00:56:58;;;;;;;5.30;5.00;;;;;;;-1.52;72.48;92977.22;508435;28;1949;-72
2023/11/27 00:57:13;;;;;;;5.18;4.95;;;;;;;-1.50;72.73;92982.88;507935;28;2294;-71
2023/11/27 00:57:29;;;;;;;5.30;5.00;;;;;;;-1.49;72.60;92987.06;508002;28;3942;-71
2023/11/27 00:57:44;;;;;;;5.55;5.15;;;;;;;-1.50;72.67;92980.16;509292;28;1861;-71
2023/11/27 00:58:00;;;;;;;7.10;6.63;;;;;;;-1.64;72.49;92962.09;508093;28;3519;-72
2023/11/27 00:58:16;;;;;;;6.65;6.25;;;;;;;-1.52;72.61;92985.31;509510;28;3032;-72
2023/11/27 00:58:31;;;;;;;4.73;4.47;;;;;;;-1.55;72.79;92983.56;509001;28;1818;-71
2023/11/27 00:58:46;;;;;;;4.30;4.00;;;;;;;-1.50;72.49;92979.41;509435;28;3231;-71
2023/11/27 00:59:02;;;;;;;3.87;3.57;;;;;;;-1.47;72.58;92992.00;508200;28;3119;-71
2023/11/27 00:59:17;;;;;;;3.75;3.50;;;;;;;-1.47;72.62;92981.91;509381;28;3062;-72
2023/11/27 00:59:38;;;;;;;4.00;3.70;;;;;;;-1.43;72.25;92985.16;509712;28;1070;-72
2023/11/27 00:59:54;;;;;;;4.38;4.00;;;;;;;-1.41;72.40;92976.53;509670;28;1923;-72
2023/11/27 01:00:10;;;;;;;6.68;6.22;;;;;;;-1.46;72.60;92980.69;507371;28;3222;-71
2023/11/27 01:00:26;;;;;;;6.20;5.80;;;;;;;-1.46;72.57;92982.66;508869;28;2007;-72
2023/11/27 01:00:42;;;;;;;3.80;3.60;;;;;;;-1.72;72.60;92945.59;507972;28;3102;-72
2023/11/27 01:00:57;;;;;;;4.72;4.43;;;;;;;-1.50;72.83;92979.41;509498;28;2372;-72
2023/11/27 01:01:14;;;;;;;5.35;4.97;;;;;;;-1.54;72.82;92983.09;509145;28;1884;-73
2023/11/27 01:01:29;;;;;;;7.57;7.07;;;;;;;-1.58;72.69;92982.56;509013;28;1240;-71
2023/11/27 01:01:45;;;;;;;7.57;7.17;;;;;;;-1.58;72.72;92976.41;508849;28;1805;-71
2023/11/27 01:02:00;;;;;;;4.82;4.53;;;;;;;-1.58;72.85;92992.66;509484;28;1061;-71
2023/11/27 01:02:16;;;;;;;4.70;4.40;;;;;;;-1.65;72.96;92974.16;507517;28;3289;-72
2023/11/27 01:02:31;;;;;;;4.23;4.03;;;;;;;-1.67;73.15;92985.44;507275;28;2693;-72
2023/11/27 01:02:47;;;;;;;4.13;3.93;;;;;;;-1.82;73.29;92965.91;509355;28;2228;-72
2023/11/27 01:03:03;;;;;;;5.82;5.53;;;;;;;-1.64;73.37;92989.91;509145;28;1834;-71
2023/11/27 01:03:18;;;;;;;6.13;5.72;;;;;;;-1.61;73.52;92977.38;508251;28;3682;-71
2023/11/27 01:03:34;;;;;;;5.80;5.50;;;;;;;-1.61;73.12;92980.09;507951;28;1783;-71
2023/11/27 01:03:49;;;;;;;7.60;7.20;;;;;;;-1.62;73.31;92976.63;508034;28;2257;-72
2023/11/27 01:04:05;;;;;;;7.53;7.13;;;;;;;-1.62;73.18;92992.13;508018;28;3941;-71
2023/11/27 01:04:20;;;;;;;5.18;4.88;;;;;;;-1.61;72.99;92993.63;509046;28;3737;-72
2023/11/27 01:04:39;;;;;;;4.20;4.00;;;;;;;-1.60;73.16;92985.03;506527;28;3160;-72
2023/11/27 01:04:55;;;;;;;4.07;3.88;;;;;;;-1.59;72.95;92986.50;509955;28;2279;-71
2023/11/27 01:05:10;;;;;;;3.65;3.45;;;;;;;-1.58;72.92;92996.09;510020;28;2154;-71
2023/11/27 01:05:25;;;;;;;3.77;3.57;;;;;;;-1.54;72.88;92987.78;509383;28;2900;-71
2023/11/27 01:05:41;;;;;;;3.90;3.70;;;;;;;-1.54;72.91;92988.50;508329;28;3280;-71
2023/11/27 01:05:56;;;;;;;5.27;4.90;;;;;;;-1.57;73.05;92989.47;509506;28;4159;-72
2023/11/27 01:06:13;;;;;;;5.93;5.53;;;;;;;-1.59;72.88;92996.59;509999;28;3201;-71
2023/11/27 01:06:29;;;;;;;4.22;4.03;;;;;;;-1.58;72.98;93003.47;508538;28;2016;-71
2023/11/27 01:06:44;;;;;;;4.10;3.90;;;;;;;-1.55;72.80;92991.69;510021;28;1959;-71
2023/11/27 01:07:00;;;;;;;4.70;4.40;;;;;;;-1.62;73.01;92995.59;509022;28;2003;-71
2023/11/27 01:07:15;;;;;;;4.47;4.27;;;;;;;-1.68;73.04;92994.81;509304;28;1947;-71
2023/11/27 01:07:30;;;;;;;4.15;3.95;;;;;;;-1.67;73.28;92996.28;506912;28;3329;-71
2023/11/27 01:07:46;;;;;;;5.57;5.30;;;;;;;-1.63;73.42;92996.06;508412;28;979;-71
2023/11/27 01:08:01;;;;;;;6.40;6.00;;;;;;;-1.62;73.48;93001.00;509639;28;4085;-71
2023/11/27 01:08:17;;;;;;;5.22;4.93;;;;;;;-1.60;73.32;93003.97;508622;28;2073;-71
2023/11/27 01:08:32;;;;;;;5.67;5.37;;;;;;;-1.58;73.24;92998.81;506820;28;3791;-71
2023/11/27 01:08:48;;;;;;;5.45;5.15;;;;;;;-1.58;72.87;92990.69;510047;28;2081;-71
2023/11/27 01:09:06;;;;;;;4.70;4.40;;;;;;;-1.62;72.95;92998.28;510128;28;2316;-71
2023/11/27 01:09:21;;;;;;;4.93;4.65;;;;;;;-1.63;73.25;93002.25;509683;28;3388;-71
2023/11/27 01:09:38;;;;;;;5.27;4.80;;;;;;;-1.61;73.16;92990.91;508131;28;2146;-72
2023/11/27 01:09:54;;;;;;;5.38;4.93;;;;;;;-1.64;73.18;92995.31;509758;28;3190;-71
2023/11/27 01:10:10;;;;;;;5.40;5.10;;;;;;;-1.62;72.80;92992.13;506840;28;1884;-72
2023/11/27 01:10:26;;;;;;;5.20;4.90;;;;;;;-1.59;73.17;93002.00;509488;28;2206;-71
2023/11/27 01:10:42;;;;;;;5.10;4.80;;;;;;;-1.57;73.15;92989.47;509253;28;948;-71
2023/11/27 01:10:57;;;;;;;5.65;5.35;;;;;;;-1.59;73.12;92985.75;509104;28;4123;-71
2023/11/27 01:11:12;;;;;;;5.32;5.03;;;;;;;-1.60;72.97;92987.72;508691;28;2014;-71
2023/11/27 01:11:28;;;;;;;5.43;5.13;;;;;;;-1.57;73.26;92994.16;507650;28;2578;-71
2023/11/27 01:11:43;;;;;;;6.05;5.75;;;;;;;-1.55;73.12;92997.84;508536;28;1994;-72
2023/11/27 01:11:59;;;;;;;5.17;4.87;;;;;;;-1.52;73.26;92985.31;509461;28;2211;-71
2023/11/27 01:12:14;;;;;;;5.20;4.90;;;;;;;-1.57;73.14;92994.91;508115;28;3921;-71
2023/11/27 01:12:30;;;;;;;5.50;5.20;;;;;;;-1.58;73.12;92995.34;508358;28;3063;-71
2023/11/27 01:12:45;;;;;;;5.10;4.80;;;;;;;-1.57;72.88;92989.47;509886;28;1107;-71
2023/11/27 01:13:01;;;;;;;4.87;4.53;;;;;;;-1.53;73.12;92991.94;507459;28;3115;-71
2023/11/27 01:13:16;;;;;;;4.60;4.30;;;;;;;-1.50;72.81;92995.66;509648;28;1873;-71
2023/11/27 01:13:32;;;;;;;4.70;4.40;;;;;;;-1.50;72.73;92984.84;508018;28;948;-71
2023/11/27 01:13:47;;;;;;;6.97;6.63;;;;;;;-1.61;72.89;92983.56;509214;28;1939;-72
2023/11/27 01:14:02;;;;;;;10.10;9.60;;;;;;;-1.70;73.39;92983.72;508560;28;2496;-71
2023/11/27 01:14:18;;;;;;;7.77;7.33;;;;;;;-1.73;73.92;92992.78;508740;28;2569;-71
2023/11/27 01:14:33;;;;;;;5.63;5.30;;;;;;;-1.72;73.78;92996.25;509590;28;998;-71
2023/11/27 01:14:49;;;;;;;6.90;6.50;;;;;;;-1.75;73.72;92997.94;508907;28;3702;-72
2023/11/27 01:15:06;;;;;;;5.95;5.55;;;;;;;-1.77;73.80;93000.41;508282;28;3360;-71
2023/11/27 01:15:21;;;;;;;5.38;5.07;;;;;;;-1.73;74.04;92986.63;509360;28;1833;-71